createdAt,value
2023-05-21T00:00:12.034Z,96458.53
2023-05-21T00:01:16.367Z,96462.81
2023-05-21T00:02:19.863Z,96462.47
2023-05-21T00:03:22.055Z,96463.22
2023-05-21T00:04:25.521Z,96468.66
2023-05-21T00:05:27.140Z,96463.22
2023-05-21T00:06:29.175Z,96458.97
2023-05-21T00:07:33.917Z,96451.63
2023-05-21T00:08:35.686Z,96460.94
2023-05-21T00:09:40.615Z,96451.28
2023-05-21T00:10:42.195Z,96449.56
2023-05-21T00:11:43.886Z,96451.81
2023-05-21T00:12:45.550Z,96451.38
2023-05-21T00:13:47.133Z,96453.00
2023-05-21T00:14:48.726Z,96452.59
2023-05-21T00:15:50.541Z,96449.91
2023-05-21T00:16:52.515Z,96453.75
2023-05-21T00:17:54.378Z,96449.91
2023-05-21T00:18:58.163Z,96456.94
2023-05-21T00:20:00.276Z,96456.25
2023-05-21T00:21:02.221Z,96448.97
2023-05-21T00:22:04.548Z,96455.91
2023-05-21T00:23:06.188Z,96452.34
2023-05-21T00:24:07.814Z,96454.63
2023-05-21T00:25:11.316Z,96443.03
2023-05-21T00:26:13.002Z,96441.41
2023-05-21T00:27:14.554Z,96442.03
2023-05-21T00:28:16.139Z,96447.06
2023-05-21T00:29:18.285Z,96438.16
2023-05-21T00:30:19.915Z,96441.56
2023-05-21T00:31:21.877Z,96436.97
2023-05-21T00:32:23.641Z,96439.72
2023-05-21T00:33:26.753Z,96435.16
2023-05-21T00:34:29.642Z,96440.22
2023-05-21T00:35:31.337Z,96434.47
2023-05-21T00:36:34.667Z,96443.41
2023-05-21T00:37:36.295Z,96433.00
2023-05-21T00:38:38.158Z,96437.59
2023-05-21T00:39:39.726Z,96433.34
2023-05-21T00:40:41.470Z,96436.81
2023-05-21T00:41:46.760Z,96443.38
2023-05-21T00:42:49.896Z,96449.97
2023-05-21T00:43:53.077Z,96455.47
2023-05-21T00:44:54.657Z,96456.63
2023-05-21T00:45:56.701Z,96461.69
2023-05-21T00:46:58.985Z,96467.88
2023-05-21T00:48:01.340Z,96463.53
2023-05-21T00:49:02.975Z,96463.13
2023-05-21T00:50:06.426Z,96460.78
2023-05-21T00:51:08.133Z,96462.34
2023-05-21T00:52:09.956Z,96450.75
2023-05-21T00:53:11.569Z,96455.38
2023-05-21T00:54:13.208Z,96449.97
2023-05-21T00:55:15.161Z,96447.72
2023-05-21T00:56:17.175Z,96444.63
2023-05-21T00:57:22.309Z,96436.91
2023-05-21T00:58:23.973Z,96431.06
2023-05-21T00:59:25.814Z,96422.19
2023-05-21T01:00:28.200Z,96426.75
2023-05-21T01:01:33.859Z,96421.97
2023-05-21T01:02:37.299Z,96418.75
2023-05-21T01:03:41.101Z,96412.41
2023-05-21T01:04:43.114Z,96419.16
2023-05-21T01:05:46.808Z,96419.75
2023-05-21T01:06:48.403Z,96416.94
2023-05-21T01:07:50.147Z,96424.19
2023-05-21T01:08:51.910Z,96431.47
2023-05-21T01:09:54.369Z,96435.75
2023-05-21T01:10:57.598Z,96435.75
2023-05-21T01:12:01.004Z,96433.84
2023-05-21T01:13:02.742Z,96435.66
2023-05-21T01:14:09.332Z,96441.09
2023-05-21T01:15:11.560Z,96438.06
2023-05-21T01:16:14.133Z,96439.16
2023-05-21T01:17:16.444Z,96440.44
2023-05-21T01:18:20.677Z,96432.00
2023-05-21T01:19:24.383Z,96430.50
2023-05-21T01:20:28.597Z,96438.97
2023-05-21T01:21:30.938Z,96431.13
2023-05-21T01:22:35.290Z,96434.88
2023-05-21T01:23:37.198Z,96432.50
2023-05-21T01:24:38.852Z,96432.44
2023-05-21T01:25:42.322Z,96432.28
2023-05-21T01:26:44.364Z,96424.38
2023-05-21T01:27:46.141Z,96421.34
2023-05-21T01:28:48.089Z,96418.31
2023-05-21T01:29:49.711Z,96422.13
2023-05-21T01:30:51.437Z,96413.44
2023-05-21T01:32:20.430Z,96417.91
2023-05-21T01:33:45.606Z,96412.63
2023-05-21T01:34:47.309Z,96418.97
2023-05-21T01:36:02.570Z,96420.44
2023-05-21T01:37:22.890Z,96417.97
2023-05-21T01:39:29.085Z,96413.53
2023-05-21T01:40:48.632Z,96410.59
2023-05-21T01:41:53.440Z,96412.41
2023-05-21T01:42:55.916Z,96412.22
2023-05-21T01:43:57.877Z,96404.50
2023-05-21T01:45:01.394Z,96412.66
2023-05-21T01:46:03.950Z,96401.28
2023-05-21T01:47:06.469Z,96398.34
2023-05-21T01:48:09.462Z,96406.19
2023-05-21T01:49:11.758Z,96402.34
2023-05-21T01:50:14.643Z,96395.19
2023-05-21T01:51:16.995Z,96396.41
2023-05-21T01:52:18.899Z,96401.53
2023-05-21T01:53:21.122Z,96399.38
2023-05-21T01:54:23.840Z,96399.16
2023-05-21T01:55:25.473Z,96399.31
2023-05-21T01:56:28.653Z,96401.03
2023-05-21T01:57:30.447Z,96401.19
2023-05-21T01:58:32.063Z,96408.56
2023-05-21T01:59:34.521Z,96406.66
2023-05-21T02:00:37.503Z,96407.09
2023-05-21T02:01:39.212Z,96399.94
2023-05-21T02:02:41.148Z,96398.09
2023-05-21T02:03:43.004Z,96399.41
2023-05-21T02:04:46.184Z,96395.63
2023-05-21T02:05:47.851Z,96398.75
2023-05-21T02:06:49.451Z,96393.75
2023-05-21T02:07:52.204Z,96398.75
2023-05-21T02:08:53.792Z,96395.88
2023-05-21T02:09:55.339Z,96395.69
2023-05-21T02:10:56.943Z,96399.84
2023-05-21T02:11:58.629Z,96394.03
2023-05-21T02:13:00.228Z,96402.13
2023-05-21T02:14:01.890Z,96401.81
2023-05-21T02:15:04.619Z,96403.47
2023-05-21T02:16:10.203Z,96395.47
2023-05-21T02:17:11.810Z,96404.81
2023-05-21T02:18:16.728Z,96394.84
2023-05-21T02:19:18.914Z,96391.38
2023-05-21T02:20:22.687Z,96398.63
2023-05-21T02:21:24.357Z,96397.44
2023-05-21T02:22:25.945Z,96401.19
2023-05-21T02:23:27.531Z,96391.34
2023-05-21T02:24:29.276Z,96392.69
2023-05-21T02:25:30.891Z,96395.72
2023-05-21T02:26:32.425Z,96403.81
2023-05-21T02:27:35.210Z,96395.81
2023-05-21T02:28:38.490Z,96398.19
2023-05-21T02:29:40.028Z,96401.38
2023-05-21T02:30:41.613Z,96383.81
2023-05-21T02:31:43.330Z,96396.28
2023-05-21T02:32:45.176Z,96402.16
2023-05-21T02:33:46.822Z,96404.59
2023-05-21T02:34:48.395Z,96402.75
2023-05-21T02:35:49.954Z,96403.97
2023-05-21T02:36:54.793Z,96398.25
2023-05-21T02:37:59.558Z,96399.13
2023-05-21T02:39:01.792Z,96405.75
2023-05-21T02:40:06.044Z,96398.44
2023-05-21T02:41:07.651Z,96396.19
2023-05-21T02:42:09.208Z,96403.16
2023-05-21T02:43:10.916Z,96408.97
2023-05-21T02:44:13.244Z,96407.78
2023-05-21T02:45:14.827Z,96407.78
2023-05-21T02:46:16.472Z,96409.31
2023-05-21T02:47:19.846Z,96412.63
2023-05-21T02:48:21.423Z,96411.66
2023-05-21T02:49:22.989Z,96403.31
2023-05-21T02:50:24.621Z,96413.16
2023-05-21T02:51:26.216Z,96407.59
2023-05-21T02:52:28.347Z,96414.47
2023-05-21T02:53:30.018Z,96413.00
2023-05-21T02:54:31.680Z,96408.88
2023-05-21T02:55:33.405Z,96416.97
2023-05-21T02:56:35.198Z,96412.28
2023-05-21T02:57:36.803Z,96416.97
2023-05-21T02:58:38.424Z,96413.25
2023-05-21T02:59:40.006Z,96409.94
2023-05-21T03:00:41.840Z,96413.50
2023-05-21T03:01:45.241Z,96410.50
2023-05-21T03:02:47.115Z,96406.66
2023-05-21T03:03:48.835Z,96398.09
2023-05-21T03:04:50.884Z,96401.84
2023-05-21T03:05:53.115Z,96399.56
2023-05-21T03:06:55.505Z,96405.34
2023-05-21T03:07:57.378Z,96404.22
2023-05-21T03:08:58.989Z,96404.97
2023-05-21T03:10:00.652Z,96411.03
2023-05-21T03:11:02.326Z,96405.94
2023-05-21T03:12:04.117Z,96403.91
2023-05-21T03:13:09.510Z,96400.81
2023-05-21T03:14:12.007Z,96408.59
2023-05-21T03:15:16.387Z,96410.00
2023-05-21T03:16:18.154Z,96404.09
2023-05-21T03:17:20.646Z,96408.69
2023-05-21T03:18:23.142Z,96407.22
2023-05-21T03:19:25.056Z,96407.53
2023-05-21T03:20:28.046Z,96407.53
2023-05-21T03:21:30.184Z,96415.31
2023-05-21T03:22:31.753Z,96406.97
2023-05-21T03:23:33.378Z,96407.50
2023-05-21T03:24:35.342Z,96415.66
2023-05-21T03:25:37.678Z,96421.00
2023-05-21T03:26:39.390Z,96426.13
2023-05-21T03:27:41.089Z,96425.84
2023-05-21T03:28:42.644Z,96424.00
2023-05-21T03:29:44.676Z,96424.31
2023-05-21T03:30:46.825Z,96423.22
2023-05-21T03:31:48.570Z,96423.94
2023-05-21T03:32:51.442Z,96418.53
2023-05-21T03:33:53.958Z,96419.69
2023-05-21T03:34:55.798Z,96427.75
2023-05-21T03:35:57.425Z,96422.91
2023-05-21T03:36:59.011Z,96421.91
2023-05-21T03:38:00.906Z,96429.59
2023-05-21T03:39:04.880Z,96436.38
2023-05-21T03:40:08.734Z,96423.53
2023-05-21T03:41:11.070Z,96431.00
2023-05-21T03:42:14.242Z,96434.00
2023-05-21T03:43:15.834Z,96429.91
2023-05-21T03:44:17.462Z,96428.81
2023-05-21T03:45:19.116Z,96423.22
2023-05-21T03:46:20.689Z,96417.28
2023-05-21T03:47:22.287Z,96420.56
2023-05-21T03:48:23.972Z,96419.13
2023-05-21T03:49:26.182Z,96415.19
2023-05-21T03:50:27.966Z,96424.34
2023-05-21T03:51:30.828Z,96421.66
2023-05-21T03:52:32.406Z,96422.03
2023-05-21T03:53:34.303Z,96419.88
2023-05-21T03:54:36.045Z,96422.25
2023-05-21T03:55:37.765Z,96420.63
2023-05-21T03:56:39.600Z,96415.97
2023-05-21T03:57:41.339Z,96419.03
2023-05-21T03:58:43.061Z,96417.06
2023-05-21T03:59:45.297Z,96410.63
2023-05-21T04:00:46.990Z,96412.28
2023-05-21T04:01:48.589Z,96420.91
2023-05-21T04:02:50.263Z,96414.09
2023-05-21T04:03:52.137Z,96415.91
2023-05-21T04:04:53.967Z,96412.22
2023-05-21T04:05:56.419Z,96409.63
2023-05-21T04:06:58.039Z,96407.81
2023-05-21T04:08:00.212Z,96412.59
2023-05-21T04:09:01.957Z,96418.84
2023-05-21T04:10:04.080Z,96423.56
2023-05-21T04:11:05.892Z,96423.22
2023-05-21T04:12:08.067Z,96421.66
2023-05-21T04:13:09.649Z,96429.69
2023-05-21T04:14:11.386Z,96424.28
2023-05-21T04:15:12.990Z,96415.88
2023-05-21T04:16:19.182Z,96417.47
2023-05-21T04:17:21.759Z,96416.34
2023-05-21T04:18:26.074Z,96422.22
2023-05-21T04:19:27.735Z,96423.13
2023-05-21T04:20:29.449Z,96421.66
2023-05-21T04:21:32.240Z,96424.81
2023-05-21T04:22:33.810Z,96424.00
2023-05-21T04:23:37.876Z,96423.56
2023-05-21T04:24:39.513Z,96423.53
2023-05-21T04:25:41.122Z,96427.72
2023-05-21T04:26:43.326Z,96421.19
2023-05-21T04:27:47.731Z,96426.25
2023-05-21T04:28:50.511Z,96421.66
2023-05-21T04:29:52.153Z,96408.56
2023-05-21T04:30:53.762Z,96418.66
2023-05-21T04:31:55.773Z,96416.75
2023-05-21T04:32:58.126Z,96416.41
2023-05-21T04:33:59.841Z,96421.06
2023-05-21T04:35:02.056Z,96418.00
2023-05-21T04:36:04.018Z,96418.84
2023-05-21T04:37:05.582Z,96421.13
2023-05-21T04:38:07.114Z,96419.56
2023-05-21T04:39:08.700Z,96423.41
2023-05-21T04:40:10.628Z,96429.91
2023-05-21T04:41:14.330Z,96424.44
2023-05-21T04:42:16.132Z,96432.13
2023-05-21T04:43:18.132Z,96423.16
2023-05-21T04:44:19.669Z,96425.44
2023-05-21T04:45:24.755Z,96429.22
2023-05-21T04:46:26.823Z,96426.16
2023-05-21T04:47:35.702Z,96428.09
2023-05-21T04:48:37.634Z,96431.22
2023-05-21T04:49:39.225Z,96423.13
2023-05-21T04:50:41.643Z,96431.66
2023-05-21T04:51:43.307Z,96420.94
2023-05-21T04:52:45.697Z,96425.63
2023-05-21T04:53:48.098Z,96423.72
2023-05-21T04:54:49.917Z,96426.47
2023-05-21T04:55:51.574Z,96424.94
2023-05-21T04:56:53.548Z,96423.03
2023-05-21T04:57:55.151Z,96425.34
2023-05-21T04:58:58.829Z,96420.31
2023-05-21T05:00:00.574Z,96429.25
2023-05-21T05:01:04.104Z,96430.06
2023-05-21T05:02:05.952Z,96424.31
2023-05-21T05:03:07.653Z,96428.94
2023-05-21T05:04:09.790Z,96429.34
2023-05-21T05:05:11.335Z,96424.72
2023-05-21T05:06:12.973Z,96427.44
2023-05-21T05:07:15.597Z,96426.66
2023-05-21T05:08:17.178Z,96422.75
2023-05-21T05:09:19.356Z,96422.75
2023-05-21T05:10:20.968Z,96419.69
2023-05-21T05:11:22.712Z,96418.94
2023-05-21T05:12:24.270Z,96421.28
2023-05-21T05:13:26.293Z,96412.78
2023-05-21T05:14:27.861Z,96415.84
2023-05-21T05:15:29.475Z,96418.19
2023-05-21T05:16:31.218Z,96414.25
2023-05-21T05:17:34.452Z,96420.41
2023-05-21T05:18:36.553Z,96415.38
2023-05-21T05:19:38.105Z,96412.66
2023-05-21T05:20:39.928Z,96419.56
2023-05-21T05:21:41.691Z,96414.56
2023-05-21T05:22:43.252Z,96409.22
2023-05-21T05:23:44.919Z,96411.97
2023-05-21T05:24:46.545Z,96417.81
2023-05-21T05:25:48.272Z,96414.72
2023-05-21T05:26:50.086Z,96417.06
2023-05-21T05:27:51.636Z,96414.75
2023-05-21T05:28:53.246Z,96410.50
2023-05-21T05:29:54.837Z,96412.81
2023-05-21T05:33:16.974Z,96406.63
2023-05-21T05:34:18.766Z,96406.66
2023-05-21T05:35:20.488Z,96405.09
2023-05-21T05:36:22.553Z,96404.31
2023-05-21T05:55:51.198Z,96403.88
2023-05-21T05:56:52.778Z,96399.00
2023-05-21T05:57:54.409Z,96395.78
2023-05-21T05:58:56.092Z,96397.63
2023-05-21T05:59:57.889Z,96398.53
2023-05-21T06:00:59.517Z,96399.97
2023-05-21T06:02:01.521Z,96396.34
2023-05-21T06:03:03.827Z,96395.72
2023-05-21T06:04:05.548Z,96395.06
2023-05-21T06:05:07.603Z,96384.75
2023-05-21T06:06:09.336Z,96390.06
2023-05-21T06:07:11.176Z,96405.34
2023-05-21T06:08:12.772Z,96397.16
2023-05-21T06:09:14.471Z,96393.97
2023-05-21T06:10:16.078Z,96396.25
2023-05-21T06:11:19.175Z,96393.75
2023-05-21T06:12:21.179Z,96392.22
2023-05-21T06:13:23.614Z,96393.31
2023-05-21T06:14:25.294Z,96390.72
2023-05-21T06:15:26.873Z,96389.63
2023-05-21T06:16:31.555Z,96385.53
2023-05-21T06:17:33.343Z,96391.41
2023-05-21T06:18:34.972Z,96382.50
2023-05-21T06:19:36.796Z,96376.81
2023-05-21T06:20:38.427Z,96374.81
2023-05-21T06:21:40.003Z,96380.59
2023-05-21T06:22:41.584Z,96377.63
2023-05-21T06:23:43.226Z,96375.97
2023-05-21T06:24:45.101Z,96380.75
2023-05-21T06:25:47.163Z,96380.72
2023-05-21T06:26:48.751Z,96378.72
2023-05-21T06:27:53.122Z,96373.53
2023-05-21T06:28:54.703Z,96375.13
2023-05-21T06:29:57.378Z,96367.94
2023-05-21T06:30:59.045Z,96373.41
2023-05-21T06:32:01.718Z,96370.59
2023-05-21T06:33:03.514Z,96370.88
2023-05-21T06:34:05.356Z,96370.53
2023-05-21T06:35:07.575Z,96368.31
2023-05-21T06:36:09.157Z,96367.69
2023-05-21T06:37:16.446Z,96371.69
2023-05-21T06:38:18.064Z,96363.56
2023-05-21T06:39:19.683Z,96361.75
2023-05-21T06:40:21.886Z,96357.97
2023-05-21T06:41:23.544Z,96357.75
2023-05-21T06:42:25.193Z,96360.81
2023-05-21T06:43:28.773Z,96353.81
2023-05-21T06:44:30.331Z,96356.22
2023-05-21T06:45:32.014Z,96355.72
2023-05-21T06:46:35.684Z,96357.59
2023-05-21T06:47:37.466Z,96351.28
2023-05-21T06:48:39.065Z,96353.00
2023-05-21T06:49:40.708Z,96349.28
2023-05-21T06:50:42.396Z,96345.84
2023-05-21T06:51:44.048Z,96348.75
2023-05-21T06:52:45.684Z,96346.56
2023-05-21T06:53:48.045Z,96334.31
2023-05-21T06:54:49.621Z,96342.81
2023-05-21T06:55:53.840Z,96346.59
2023-05-21T06:56:55.620Z,96340.84
2023-05-21T06:57:57.931Z,96335.00
2023-05-21T06:58:59.561Z,96336.78
2023-05-21T07:00:01.692Z,96340.19
2023-05-21T07:01:03.372Z,96335.72
2023-05-21T07:02:05.217Z,96334.59
2023-05-21T07:03:06.936Z,96335.97
2023-05-21T07:04:09.514Z,96326.88
2023-05-21T07:05:11.268Z,96335.78
2023-05-21T07:06:12.825Z,96324.97
2023-05-21T07:07:14.820Z,96321.69
2023-05-21T07:08:16.856Z,96324.69
2023-05-21T07:09:18.931Z,96324.69
2023-05-21T07:10:20.650Z,96330.16
2023-05-21T07:11:22.242Z,96328.97
2023-05-21T07:12:23.793Z,96327.66
2023-05-21T07:13:25.407Z,96330.63
2023-05-21T07:14:26.972Z,96327.69
2023-05-21T07:15:28.640Z,96320.44
2023-05-21T07:16:30.397Z,96323.59
2023-05-21T07:17:32.087Z,96319.81
2023-05-21T07:18:33.773Z,96329.91
2023-05-21T07:19:35.371Z,96320.19
2023-05-21T07:20:36.906Z,96316.41
2023-05-21T07:21:38.544Z,96313.59
2023-05-21T07:22:40.164Z,96315.63
2023-05-21T07:23:41.814Z,96313.19
2023-05-21T07:24:43.479Z,96320.66
2023-05-21T07:25:45.173Z,96321.94
2023-05-21T07:26:46.831Z,96326.97
2023-05-21T07:27:48.412Z,96321.78
2023-05-21T07:28:50.125Z,96326.75
2023-05-21T07:29:53.278Z,96325.91
2023-05-21T07:30:55.089Z,96321.97
2023-05-21T07:31:56.679Z,96323.44
2023-05-21T07:32:58.369Z,96319.91
2023-05-21T07:34:01.847Z,96321.00
2023-05-21T07:35:03.865Z,96318.75
2023-05-21T07:36:06.217Z,96300.34
2023-05-21T07:37:07.804Z,96306.09
2023-05-21T07:38:09.489Z,96311.81
2023-05-21T07:39:11.150Z,96311.63
2023-05-21T07:40:13.421Z,96308.59
2023-05-21T07:41:17.096Z,96307.00
2023-05-21T07:42:20.012Z,96305.28
2023-05-21T07:43:21.633Z,96307.47
2023-05-21T07:44:24.467Z,96307.75
2023-05-21T07:45:26.085Z,96303.78
2023-05-21T07:46:27.642Z,96301.66
2023-05-21T07:47:29.340Z,96304.66
2023-05-21T07:48:31.654Z,96316.22
2023-05-21T07:49:34.586Z,96305.88
2023-05-21T07:50:37.759Z,96306.34
2023-05-21T07:51:39.428Z,96306.00
2023-05-21T07:52:41.031Z,96312.03
2023-05-21T07:53:42.690Z,96305.78
2023-05-21T07:54:44.383Z,96311.88
2023-05-21T07:55:47.950Z,96301.38
2023-05-21T07:56:49.622Z,96302.84
2023-05-21T07:57:52.425Z,96307.16
2023-05-21T07:58:54.044Z,96304.94
2023-05-21T07:59:56.638Z,96302.22
2023-05-21T08:00:58.570Z,96302.84
2023-05-21T08:02:00.238Z,96300.72
2023-05-21T08:03:02.670Z,96303.94
2023-05-21T08:04:06.790Z,96299.09
2023-05-21T08:05:09.024Z,96291.69
2023-05-21T08:06:10.845Z,96288.06
2023-05-21T08:07:13.793Z,96289.38
2023-05-21T08:08:17.402Z,96292.66
2023-05-21T08:09:19.403Z,96286.06
2023-05-21T08:10:21.208Z,96281.03
2023-05-21T08:11:23.392Z,96288.94
2023-05-21T08:12:25.410Z,96280.84
2023-05-21T08:13:27.005Z,96287.41
2023-05-21T08:14:28.606Z,96288.81
2023-05-21T08:15:30.266Z,96293.88
2023-05-21T08:16:31.947Z,96289.81
2023-05-21T08:17:33.603Z,96289.28
2023-05-21T08:18:35.202Z,96287.78
2023-05-21T08:19:37.258Z,96288.19
2023-05-21T08:20:38.897Z,96289.84
2023-05-21T08:21:40.562Z,96290.28
2023-05-21T08:22:43.772Z,96295.00
2023-05-21T08:23:45.512Z,96295.13
2023-05-21T08:24:48.347Z,96290.91
2023-05-21T08:25:50.025Z,96296.59
2023-05-21T08:26:51.769Z,96287.94
2023-05-21T08:27:53.631Z,96299.22
2023-05-21T08:28:55.218Z,96296.16
2023-05-21T08:29:56.817Z,96301.66
2023-05-21T08:30:58.590Z,96295.28
2023-05-21T08:32:00.333Z,96297.81
2023-05-21T08:33:02.528Z,96299.38
2023-05-21T08:34:04.121Z,96299.03
2023-05-21T08:35:06.287Z,96294.88
2023-05-21T08:36:08.531Z,96299.06
2023-05-21T08:37:10.164Z,96289.72
2023-05-21T08:38:11.845Z,96297.72
2023-05-21T08:39:13.437Z,96296.97
2023-05-21T08:40:15.150Z,96293.13
2023-05-21T08:41:18.434Z,96302.22
2023-05-21T08:42:39.572Z,96292.59
2023-05-21T08:43:41.340Z,96288.75
2023-05-21T08:44:46.547Z,96291.16
2023-05-21T08:45:54.938Z,96288.72
2023-05-21T08:46:59.337Z,96290.41
2023-05-21T08:48:01.016Z,96294.22
2023-05-21T08:49:03.836Z,96294.22
2023-05-21T08:50:09.565Z,96295.78
2023-05-21T08:51:11.230Z,96293.56
2023-05-21T08:52:13.685Z,96294.53
2023-05-21T08:53:24.122Z,96292.09
2023-05-21T08:54:33.059Z,96289.47
2023-05-21T08:55:35.533Z,96286.06
2023-05-21T08:56:40.808Z,96299.69
2023-05-21T08:57:46.321Z,96291.34
2023-05-21T08:58:49.171Z,96301.25
2023-05-21T08:59:50.844Z,96301.47
2023-05-21T09:00:52.465Z,96297.84
2023-05-21T09:01:54.869Z,96304.22
2023-05-21T09:03:01.346Z,96298.97
2023-05-21T09:04:16.215Z,96302.91
2023-05-21T09:05:22.694Z,96294.78
2023-05-21T09:06:26.043Z,96299.59
2023-05-21T09:07:29.222Z,96298.94
2023-05-21T09:08:35.937Z,96298.19
2023-05-21T09:09:49.449Z,96298.94
2023-05-21T09:10:52.384Z,96298.03
2023-05-21T09:11:54.154Z,96290.22
2023-05-21T09:12:55.976Z,96290.44
2023-05-21T09:14:00.204Z,96290.59
2023-05-21T09:15:02.370Z,96290.16
2023-05-21T09:16:05.902Z,96293.47
2023-05-21T09:17:07.630Z,96293.09
2023-05-21T09:18:09.339Z,96294.66
2023-05-21T09:19:11.198Z,96293.03
2023-05-21T09:20:17.335Z,96295.41
2023-05-21T09:21:27.356Z,96285.63
2023-05-21T09:22:28.966Z,96284.53
2023-05-21T09:23:30.894Z,96286.06
2023-05-21T09:24:35.788Z,96285.53
2023-05-21T09:25:39.463Z,96282.78
2023-05-21T09:26:43.653Z,96283.50
2023-05-21T09:27:45.301Z,96284.75
2023-05-21T09:28:47.439Z,96277.72
2023-05-21T09:29:49.026Z,96287.38
2023-05-21T09:30:54.194Z,96282.06
2023-05-21T09:31:56.176Z,96275.63
2023-05-21T09:32:59.964Z,96283.88
2023-05-21T09:34:01.721Z,96282.06
2023-05-21T09:35:14.501Z,96289.56
2023-05-21T09:36:20.176Z,96287.72
2023-05-21T09:38:28.130Z,96277.97
2023-05-21T09:39:33.513Z,96283.09
2023-05-21T09:40:35.670Z,96279.44
2023-05-21T09:41:38.096Z,96282.59
2023-05-21T09:42:40.976Z,96277.06
2023-05-21T09:43:44.201Z,96277.56
2023-05-21T09:44:45.846Z,96282.16
2023-05-21T09:45:56.012Z,96279.72
2023-05-21T09:46:59.609Z,96278.69
2023-05-21T09:48:01.397Z,96281.00
2023-05-21T09:49:03.104Z,96273.81
2023-05-21T09:50:05.213Z,96280.81
2023-05-21T09:51:13.787Z,96286.09
2023-05-21T09:52:23.566Z,96289.09
2023-05-21T09:53:25.153Z,96288.34
2023-05-21T09:54:32.935Z,96288.06
2023-05-21T09:55:36.457Z,96290.19
2023-05-21T09:56:39.669Z,96287.59
2023-05-21T09:57:46.477Z,96283.50
2023-05-21T09:58:54.832Z,96284.97
2023-05-21T09:59:56.613Z,96289.03
2023-05-21T10:00:59.102Z,96280.38
2023-05-21T10:02:00.826Z,96276.88
2023-05-21T10:03:08.179Z,96283.41
2023-05-21T10:04:10.553Z,96286.25
2023-05-21T10:05:13.680Z,96283.31
2023-05-21T10:06:16.622Z,96289.47
2023-05-21T10:07:21.806Z,96290.06
2023-05-21T10:08:27.361Z,96282.91
2023-05-21T10:09:30.155Z,96281.63
2023-05-21T10:10:32.524Z,96287.44
2023-05-21T10:11:36.591Z,96284.59
2023-05-21T10:12:41.370Z,96282.34
2023-05-21T10:13:48.581Z,96285.44
2023-05-21T10:15:01.509Z,96281.91
2023-05-21T10:16:03.573Z,96287.78
2023-05-21T10:17:07.361Z,96294.50
2023-05-21T10:18:12.462Z,96284.28
2023-05-21T10:19:16.159Z,96283.47
2023-05-21T10:20:18.224Z,96292.69
2023-05-21T10:21:22.842Z,96287.84
2023-05-21T10:22:25.674Z,96294.84
2023-05-21T10:23:29.053Z,96295.44
2023-05-21T10:24:32.231Z,96288.56
2023-05-21T10:25:34.916Z,96288.75
2023-05-21T10:26:38.507Z,96300.84
2023-05-21T10:27:41.324Z,96286.56
2023-05-21T10:28:44.286Z,96289.16
2023-05-21T10:29:46.408Z,96296.16
2023-05-21T10:30:54.803Z,96292.16
2023-05-21T10:31:57.045Z,96292.88
2023-05-21T10:32:59.960Z,96296.16
2023-05-21T10:34:06.605Z,96289.88
2023-05-21T10:35:10.300Z,96295.25
2023-05-21T10:36:12.427Z,96310.03
2023-05-21T10:37:14.439Z,96291.28
2023-05-21T10:38:19.264Z,96299.75
2023-05-21T10:39:24.192Z,96302.28
2023-05-21T10:40:25.894Z,96290.81
2023-05-21T10:41:28.600Z,96293.28
2023-05-21T10:42:33.107Z,96298.75
2023-05-21T10:44:11.109Z,96299.00
2023-05-21T10:45:40.694Z,96295.56
2023-05-21T10:47:09.068Z,96296.47
2023-05-21T10:48:16.375Z,96300.16
2023-05-21T10:49:51.992Z,96293.97
2023-05-21T10:51:22.623Z,96297.19
2023-05-21T10:52:38.665Z,96299.00
2023-05-21T10:53:55.402Z,96297.44
2023-05-21T10:54:59.984Z,96306.34
2023-05-21T10:56:22.128Z,96301.81
2023-05-21T10:58:00.396Z,96305.03
2023-05-21T10:59:12.832Z,96304.19
2023-05-21T11:00:18.379Z,96308.94
2023-05-21T11:01:20.907Z,96302.78
2023-05-21T11:02:26.716Z,96304.03
2023-05-21T11:03:30.740Z,96303.06
2023-05-21T11:04:32.652Z,96298.72
2023-05-21T11:05:55.239Z,96309.66
2023-05-21T11:06:59.300Z,96307.63
2023-05-21T11:08:02.444Z,96300.34
2023-05-21T11:09:14.646Z,96303.78
2023-05-21T11:10:41.490Z,96302.75
2023-05-21T11:11:46.176Z,96309.69
2023-05-21T11:13:07.112Z,96302.31
2023-05-21T11:14:42.146Z,96289.75
2023-05-21T11:15:58.731Z,96292.91
2023-05-21T11:17:02.089Z,96292.78
2023-05-21T11:18:03.930Z,96299.00
2023-05-21T11:19:05.649Z,96296.63
2023-05-21T11:20:16.760Z,96284.91
2023-05-21T11:21:22.380Z,96295.63
2023-05-21T11:22:27.649Z,96289.31
2023-05-21T11:23:51.452Z,96289.63
2023-05-21T11:24:55.083Z,96295.38
2023-05-21T11:26:02.813Z,96299.28
2023-05-21T11:27:05.679Z,96295.34
2023-05-21T11:28:09.445Z,96297.94
2023-05-21T11:29:11.435Z,96286.66
2023-05-21T11:30:18.806Z,96285.00
2023-05-21T11:31:27.688Z,96295.34
2023-05-21T11:32:29.923Z,96294.31
2023-05-21T11:33:33.457Z,96288.47
2023-05-21T11:34:43.537Z,96285.38
2023-05-21T11:35:45.037Z,96286.03
2023-05-21T11:36:48.811Z,96296.00
2023-05-21T11:37:53.899Z,96291.28
2023-05-21T11:39:25.508Z,96295.66
2023-05-21T11:40:28.285Z,96303.84
2023-05-21T11:41:29.949Z,96296.88
2023-05-21T11:42:33.718Z,96288.09
2023-05-21T11:43:40.785Z,96287.19
2023-05-21T11:44:49.890Z,96295.78
2023-05-21T11:45:53.105Z,96303.66
2023-05-21T11:46:55.171Z,96305.66
2023-05-21T11:47:57.012Z,96298.22
2023-05-21T11:48:59.215Z,96300.81
2023-05-21T11:50:02.599Z,96305.34
2023-05-21T11:51:04.636Z,96301.38
2023-05-21T11:52:08.371Z,96291.44
2023-05-21T11:53:12.573Z,96296.41
2023-05-21T11:54:14.181Z,96303.41
2023-05-21T11:55:16.031Z,96303.34
2023-05-21T11:56:18.388Z,96311.13
2023-05-21T11:57:20.135Z,96302.72
2023-05-21T11:58:21.738Z,96304.34
2023-05-21T11:59:23.382Z,96301.69
2023-05-21T12:00:24.979Z,96311.44
2023-05-21T12:01:26.685Z,96306.44
2023-05-21T12:02:32.758Z,96304.09
2023-05-21T12:03:35.569Z,96302.53
2023-05-21T12:04:37.269Z,96297.03
2023-05-21T12:05:48.853Z,96300.44
2023-05-21T12:06:50.791Z,96295.78
2023-05-21T12:07:52.571Z,96300.06
2023-05-21T12:08:58.270Z,96297.72
2023-05-21T12:10:00.452Z,96304.63
2023-05-21T12:11:02.677Z,96300.09
2023-05-21T12:12:06.189Z,96305.50
2023-05-21T12:13:07.829Z,96298.38
2023-05-21T12:14:12.556Z,96294.69
2023-05-21T12:15:14.847Z,96292.22
2023-05-21T12:16:16.640Z,96293.19
2023-05-21T12:17:19.851Z,96293.03
2023-05-21T12:18:22.256Z,96289.84
2023-05-21T12:19:24.713Z,96291.84
2023-05-21T12:20:28.285Z,96288.31
2023-05-21T12:21:31.515Z,96286.59
2023-05-21T12:22:33.892Z,96293.44
2023-05-21T12:23:36.493Z,96288.63
2023-05-21T12:24:39.177Z,96286.56
2023-05-21T12:25:40.825Z,96285.91
2023-05-21T12:26:44.562Z,96284.16
2023-05-21T12:27:46.868Z,96283.47
2023-05-21T12:28:49.069Z,96299.09
2023-05-21T12:29:51.990Z,96290.50
2023-05-21T12:30:53.697Z,96283.94
2023-05-21T12:31:59.858Z,96290.81
2023-05-21T12:33:02.321Z,96291.69
2023-05-21T12:34:05.588Z,96293.97
2023-05-21T12:35:07.798Z,96290.94
2023-05-21T12:36:09.423Z,96285.72
2023-05-21T12:37:33.938Z,96279.53
2023-05-21T12:38:35.914Z,96290.69
2023-05-21T12:39:39.177Z,96288.44
2023-05-21T12:40:41.462Z,96284.31
2023-05-21T12:41:43.992Z,96282.28
2023-05-21T12:42:45.793Z,96282.34
2023-05-21T12:43:47.799Z,96283.72
2023-05-21T12:44:49.896Z,96280.34
2023-05-21T12:45:51.735Z,96284.25
2023-05-21T12:46:53.372Z,96285.38
2023-05-21T12:47:56.576Z,96285.59